createdAt,value
2018-05-16T00:01:29.266Z,16.37
2018-05-16T00:03:57.188Z,16.30
2018-05-16T00:06:25.205Z,16.23
2018-05-16T00:08:53.176Z,15.90
2018-05-16T00:11:21.132Z,16.07
2018-05-16T00:13:49.145Z,16.90
2018-05-16T00:16:17.487Z,17.23
2018-05-16T00:18:45.414Z,17.50
2018-05-16T00:21:13.516Z,16.70
2018-05-16T00:23:42.423Z,15.00
2018-05-16T00:26:10.588Z,14.47
2018-05-16T00:28:38.524Z,16.13
2018-05-16T00:31:06.493Z,15.23
2018-05-16T00:33:34.597Z,15.37
2018-05-16T00:36:02.549Z,16.17
2018-05-16T00:38:30.474Z,15.80
2018-05-16T00:40:58.392Z,17.70
2018-05-16T00:43:26.331Z,16.13
2018-05-16T00:45:54.239Z,22.33
2018-05-16T00:48:22.169Z,16.43
2018-05-16T00:51:01.938Z,15.70
2018-05-16T00:53:29.905Z,16.70
2018-05-16T00:55:57.822Z,15.97
2018-05-16T00:58:25.771Z,17.23
2018-05-16T01:00:53.680Z,17.47
2018-05-16T01:03:21.637Z,17.47
2018-05-16T01:05:49.678Z,16.90
2018-05-16T01:08:17.744Z,17.73
2018-05-16T01:10:45.789Z,17.13
2018-05-16T01:13:13.898Z,17.07
2018-05-16T01:15:41.824Z,17.60
2018-05-16T01:18:09.737Z,16.27
2018-05-16T01:20:37.646Z,17.57
2018-05-16T01:23:05.582Z,17.13
2018-05-16T01:25:33.513Z,16.67
2018-05-16T01:28:01.461Z,16.63
2018-05-16T01:30:29.400Z,16.97
2018-05-16T01:32:57.362Z,17.23
2018-05-16T01:35:25.305Z,16.93
2018-05-16T01:37:53.237Z,16.83
2018-05-16T01:40:21.156Z,17.50
2018-05-16T01:42:49.088Z,16.20
2018-05-16T01:45:17.012Z,17.07
2018-05-16T01:47:44.923Z,16.67
2018-05-16T01:50:12.874Z,16.60
2018-05-16T01:52:40.822Z,16.40
2018-05-16T01:55:08.762Z,15.63
2018-05-16T01:57:36.674Z,15.97
2018-05-16T02:00:04.605Z,15.23
2018-05-16T02:02:32.530Z,17.20
2018-05-16T02:05:00.469Z,15.37
2018-05-16T02:07:28.385Z,16.47
2018-05-16T02:09:56.335Z,16.87
2018-05-16T02:12:24.258Z,17.27
2018-05-16T02:14:52.171Z,16.90
2018-05-16T02:17:20.101Z,16.20
2018-05-16T02:19:48.041Z,16.47
2018-05-16T02:22:15.980Z,15.40
2018-05-16T02:24:43.944Z,15.20
2018-05-16T02:27:11.859Z,15.10
2018-05-16T02:29:39.767Z,16.63
2018-05-16T02:32:07.699Z,16.40
2018-05-16T02:34:35.604Z,15.50
2018-05-16T02:37:03.552Z,16.47
2018-05-16T02:39:31.470Z,16.90
2018-05-16T02:41:59.499Z,16.63
2018-05-16T02:44:27.401Z,15.40
2018-05-16T02:46:55.368Z,15.87
2018-05-16T02:49:23.284Z,16.57
2018-05-16T02:51:51.202Z,16.23
2018-05-16T02:54:19.237Z,15.47
2018-05-16T02:56:47.046Z,15.83
2018-05-16T02:59:14.971Z,16.93
2018-05-16T03:01:42.879Z,17.63
2018-05-16T03:04:10.825Z,18.10
2018-05-16T03:06:38.747Z,18.27
2018-05-16T03:09:06.690Z,18.60
2018-05-16T03:11:34.593Z,17.67
2018-05-16T03:14:02.553Z,18.10
2018-05-16T03:16:30.479Z,17.57
2018-05-16T03:18:58.419Z,18.67
2018-05-16T03:21:26.351Z,18.30
2018-05-16T03:23:54.358Z,17.47
2018-05-16T03:26:22.251Z,16.80
2018-05-16T03:28:50.189Z,17.03
2018-05-16T03:31:18.135Z,18.10
2018-05-16T03:33:46.072Z,17.90
2018-05-16T03:36:13.986Z,18.00
2018-05-16T03:38:41.908Z,17.13
2018-05-16T03:41:09.820Z,16.80
2018-05-16T03:43:37.847Z,17.53
2018-05-16T03:46:05.749Z,16.43
2018-05-16T03:48:33.683Z,16.90
2018-05-16T03:51:01.625Z,18.97
2018-05-16T03:53:29.539Z,17.27
2018-05-16T03:55:57.509Z,16.70
2018-05-16T03:58:37.290Z,16.63
2018-05-16T04:01:17.470Z,15.40
2018-05-16T04:06:42.689Z,16.67
2018-05-16T04:09:10.655Z,15.87
2018-05-16T04:11:38.600Z,16.20
2018-05-16T04:14:06.509Z,15.63
2018-05-16T04:16:34.465Z,14.53
2018-05-16T04:19:02.434Z,15.20
2018-05-16T04:21:30.356Z,17.40
2018-05-16T04:23:58.257Z,15.57
2018-05-16T04:26:26.180Z,16.33
2018-05-16T04:28:54.253Z,15.83
2018-05-16T04:31:22.031Z,15.17
2018-05-16T04:33:49.979Z,15.30
2018-05-16T04:36:17.904Z,14.77
2018-05-16T04:38:45.817Z,16.90
2018-05-16T04:41:13.743Z,15.80
2018-05-16T04:43:41.668Z,16.23
2018-05-16T04:46:09.603Z,15.43
2018-05-16T04:48:37.527Z,16.17
2018-05-16T04:51:05.451Z,15.43
2018-05-16T04:53:33.657Z,16.53
2018-05-16T04:56:01.571Z,14.30
2018-05-16T04:58:29.467Z,15.23
2018-05-16T05:00:57.451Z,14.83
2018-05-16T05:03:25.331Z,14.63
2018-05-16T05:05:53.265Z,13.60
2018-05-16T05:08:21.274Z,15.40
2018-05-16T05:10:49.187Z,16.50
2018-05-16T05:13:17.186Z,16.67
2018-05-16T05:15:45.110Z,15.80
2018-05-16T05:18:13.154Z,16.00
2018-05-16T05:20:41.271Z,16.00
2018-05-16T05:23:09.196Z,16.07
2018-05-16T05:25:37.136Z,15.07
2018-05-16T05:28:05.175Z,15.37
2018-05-16T05:30:33.103Z,13.90
2018-05-16T05:33:01.102Z,14.50
2018-05-16T05:35:29.031Z,15.90
2018-05-16T05:37:56.938Z,14.90
2018-05-16T05:40:24.924Z,14.90
2018-05-16T05:42:52.834Z,14.10
2018-05-16T05:45:20.805Z,15.07
2018-05-16T05:47:48.755Z,14.80
2018-05-16T05:50:16.694Z,13.73
2018-05-16T05:52:44.592Z,13.50
2018-05-16T05:55:12.541Z,14.47
2018-05-16T05:57:40.496Z,14.70
2018-05-16T06:00:08.448Z,13.50
2018-05-16T06:02:36.341Z,13.37
2018-05-16T06:05:04.283Z,14.03
2018-05-16T06:07:32.207Z,13.60
2018-05-16T06:10:00.184Z,12.50
2018-05-16T06:12:28.050Z,12.40
2018-05-16T06:14:55.982Z,13.57
2018-05-16T06:17:23.903Z,12.70
2018-05-16T06:19:51.938Z,12.40
2018-05-16T06:22:19.786Z,12.30
2018-05-16T06:24:47.705Z,12.00
2018-05-16T06:27:15.704Z,11.03
2018-05-16T06:29:43.748Z,11.07
2018-05-16T06:32:11.704Z,11.80
2018-05-16T06:34:39.629Z,11.43
2018-05-16T06:37:07.554Z,11.23
2018-05-16T06:39:36.348Z,9.43
2018-05-16T06:42:04.284Z,11.00
2018-05-16T06:44:32.233Z,11.60
2018-05-16T06:47:00.178Z,10.60
2018-05-16T06:49:28.111Z,10.33
2018-05-16T06:51:56.039Z,11.00
2018-05-16T06:54:23.974Z,10.43
2018-05-16T06:56:51.900Z,9.33
2018-05-16T06:59:19.846Z,9.73
2018-05-16T07:01:47.748Z,9.70
2018-05-16T07:04:15.692Z,9.83
2018-05-16T07:06:43.644Z,8.30
2018-05-16T07:09:11.509Z,8.80
2018-05-16T07:11:39.441Z,8.70
2018-05-16T07:14:07.366Z,8.67
2018-05-16T07:16:35.378Z,9.00
2018-05-16T07:19:03.273Z,7.80
2018-05-16T07:21:31.204Z,8.10
2018-05-16T07:23:59.108Z,7.43
2018-05-16T07:26:27.045Z,8.40
2018-05-16T07:28:55.237Z,8.20
2018-05-16T07:31:23.139Z,7.80
2018-05-16T07:33:51.081Z,7.90
2018-05-16T07:36:18.984Z,7.83
2018-05-16T07:38:46.937Z,8.40
2018-05-16T07:41:14.845Z,9.20
2018-05-16T07:43:42.750Z,7.87
2018-05-16T07:46:10.733Z,7.90
2018-05-16T07:48:38.619Z,7.10
2018-05-16T07:51:07.204Z,7.27
2018-05-16T07:53:35.613Z,6.70
2018-05-16T07:56:03.549Z,6.70
2018-05-16T07:58:31.474Z,7.27
2018-05-16T08:00:59.409Z,7.20
2018-05-16T08:03:27.315Z,7.63
2018-05-16T08:05:55.323Z,7.20
2018-05-16T08:08:23.285Z,7.07
2018-05-16T08:10:51.956Z,7.20
2018-05-16T08:13:19.868Z,6.73
2018-05-16T08:15:48.385Z,6.53
2018-05-16T08:18:16.291Z,6.90
2018-05-16T08:20:44.249Z,7.13
2018-05-16T08:23:12.147Z,6.70
2018-05-16T08:25:43.628Z,7.00
2018-05-16T08:28:11.521Z,6.97
2018-05-16T08:30:39.552Z,6.50
2018-05-16T08:33:07.479Z,6.20
2018-05-16T08:35:36.077Z,6.70
2018-05-16T08:38:04.067Z,8.10
2018-05-16T08:40:32.031Z,7.40
2018-05-16T08:42:59.998Z,8.33
2018-05-16T08:45:27.877Z,8.27
2018-05-16T08:47:55.823Z,9.17
2018-05-16T08:50:23.728Z,8.87
2018-05-16T08:52:51.678Z,8.40
2018-05-16T08:55:19.595Z,8.30
2018-05-16T08:57:47.534Z,8.03
2018-05-16T09:00:15.794Z,7.70
2018-05-16T09:02:43.679Z,6.73
2018-05-16T09:05:12.057Z,8.40
2018-05-16T09:07:40.011Z,8.20
2018-05-16T09:10:08.383Z,7.77
2018-05-16T09:12:36.293Z,7.90
2018-05-16T09:15:04.815Z,7.03
2018-05-16T09:17:32.749Z,6.83
2018-05-16T09:20:00.663Z,8.10
2018-05-16T09:22:28.595Z,7.83
2018-05-16T09:24:56.503Z,7.90
2018-05-16T09:27:24.424Z,7.43
2018-05-16T09:29:52.329Z,7.97
2018-05-16T09:32:20.252Z,7.73
2018-05-16T09:34:48.178Z,8.20
2018-05-16T09:37:16.244Z,7.63
2018-05-16T09:39:44.225Z,8.50
2018-05-16T09:42:12.174Z,7.17
2018-05-16T09:44:40.075Z,8.60
2018-05-16T09:47:07.995Z,9.03
2018-05-16T09:49:36.124Z,8.73
2018-05-16T09:52:04.368Z,8.20
2018-05-16T09:54:32.275Z,8.27
2018-05-16T09:57:00.194Z,7.37
2018-05-16T09:59:28.119Z,7.63
2018-05-16T10:01:56.052Z,8.17
2018-05-16T10:04:23.984Z,9.30
2018-05-16T10:06:51.898Z,9.23
2018-05-16T10:09:19.831Z,10.73
2018-05-16T10:11:47.745Z,9.40
2018-05-16T10:14:15.652Z,9.10
2018-05-16T10:16:43.581Z,9.27
2018-05-16T10:19:11.492Z,9.13
2018-05-16T10:21:39.434Z,9.30
2018-05-16T10:24:07.372Z,9.20
2018-05-16T10:26:35.273Z,9.30
2018-05-16T10:29:03.359Z,9.67
2018-05-16T10:31:31.340Z,8.20
2018-05-16T10:33:59.251Z,10.00
2018-05-16T10:36:27.203Z,10.10
2018-05-16T10:38:55.128Z,9.23
2018-05-16T10:41:23.043Z,8.27
2018-05-16T10:43:50.961Z,8.17
2018-05-16T10:46:18.876Z,8.70
2018-05-16T10:48:46.790Z,8.27
2018-05-16T10:51:14.894Z,9.50
2018-05-16T10:53:42.798Z,9.20
2018-05-16T10:56:10.740Z,9.60
2018-05-16T10:58:38.674Z,9.67
2018-05-16T11:01:06.666Z,10.27
2018-05-16T11:03:34.720Z,11.67
2018-05-16T11:06:02.655Z,11.40
2018-05-16T11:08:30.573Z,11.10
2018-05-16T11:10:58.499Z,11.37
2018-05-16T11:13:26.407Z,11.90
2018-05-16T11:15:54.352Z,11.40
2018-05-16T11:18:22.679Z,10.57
2018-05-16T11:20:50.600Z,12.43
2018-05-16T11:23:18.546Z,11.00
2018-05-16T11:25:46.470Z,9.83
2018-05-16T11:28:14.462Z,11.90
2018-05-16T11:30:42.361Z,10.40
2018-05-16T11:33:10.361Z,9.60
2018-05-16T11:35:38.346Z,9.37
2018-05-16T11:38:06.233Z,10.67
2018-05-16T11:40:34.165Z,11.20
2018-05-16T11:43:02.096Z,13.20
2018-05-16T11:45:30.019Z,13.70
2018-05-16T11:47:57.939Z,13.97
2018-05-16T11:50:25.859Z,14.60
2018-05-16T11:52:54.151Z,15.07
2018-05-16T11:55:22.071Z,15.03
2018-05-16T11:57:49.985Z,13.30
2018-05-16T12:00:17.923Z,13.63
2018-05-16T12:02:45.921Z,14.07
2018-05-16T12:05:13.771Z,14.37
2018-05-16T12:07:41.692Z,14.97
2018-05-16T12:10:09.617Z,14.27
2018-05-16T12:12:38.392Z,14.40
2018-05-16T12:15:06.290Z,14.50
2018-05-16T12:17:34.233Z,14.33
2018-05-16T12:20:02.146Z,13.40
2018-05-16T12:22:30.068Z,13.60
2018-05-16T12:24:57.987Z,11.40
2018-05-16T12:27:25.916Z,11.93
2018-05-16T12:29:53.854Z,13.77
2018-05-16T12:32:21.810Z,11.97
2018-05-16T12:34:49.883Z,12.30
2018-05-16T12:37:17.853Z,11.53
2018-05-16T12:39:45.780Z,10.50
2018-05-16T12:42:13.699Z,10.77
2018-05-16T12:44:41.658Z,9.77
2018-05-16T12:47:09.573Z,10.10
2018-05-16T12:49:37.494Z,7.67
2018-05-16T12:52:05.431Z,8.40
2018-05-16T12:54:33.345Z,7.70
2018-05-16T12:57:01.258Z,7.53
2018-05-16T12:59:29.167Z,7.87
2018-05-16T13:01:57.076Z,7.83
2018-05-16T13:04:25.034Z,7.20
2018-05-16T13:06:52.943Z,8.10
2018-05-16T13:09:20.876Z,7.57
2018-05-16T13:11:48.779Z,8.20
2018-05-16T13:14:16.723Z,8.70
2018-05-16T13:16:44.627Z,8.50
2018-05-16T13:19:12.551Z,7.83
2018-05-16T13:21:40.587Z,6.83
2018-05-16T13:24:08.412Z,7.97
2018-05-16T13:26:36.346Z,7.33
2018-05-16T13:29:04.307Z,7.47
2018-05-16T13:31:32.222Z,8.10
2018-05-16T13:34:00.169Z,8.10
2018-05-16T13:36:28.120Z,7.33
2018-05-16T13:38:56.036Z,7.93
2018-05-16T13:41:23.978Z,11.47
2018-05-16T13:43:51.896Z,15.57
2018-05-16T13:46:20.418Z,12.37
2018-05-16T13:48:48.498Z,14.70
2018-05-16T13:51:16.433Z,14.60
2018-05-16T13:53:44.352Z,9.60
2018-05-16T13:56:12.475Z,13.90
2018-05-16T13:58:40.439Z,24.10
2018-05-16T14:01:08.412Z,35.43
2018-05-16T14:03:36.324Z,12.73
2018-05-16T14:06:04.289Z,20.63
2018-05-16T14:08:32.191Z,20.90
2018-05-16T14:11:00.104Z,13.43
2018-05-16T14:13:28.024Z,5.90
2018-05-16T14:15:55.943Z,7.03
2018-05-16T14:18:23.907Z,6.53
2018-05-16T14:20:51.856Z,6.93
2018-05-16T14:23:19.755Z,8.10
2018-05-16T14:25:47.696Z,8.30
2018-05-16T14:28:15.623Z,7.70
2018-05-16T14:30:43.578Z,7.80
2018-05-16T14:33:11.498Z,8.47
2018-05-16T14:35:39.436Z,7.60
2018-05-16T14:38:07.379Z,6.73
2018-05-16T14:40:35.300Z,7.37
2018-05-16T14:43:03.227Z,7.27
2018-05-16T14:45:31.246Z,7.47
2018-05-16T14:47:59.169Z,7.30
2018-05-16T14:50:27.579Z,6.60
2018-05-16T14:52:55.483Z,7.50
2018-05-16T14:55:23.444Z,7.07
2018-05-16T14:57:51.348Z,6.87
2018-05-16T15:00:19.287Z,6.03
2018-05-16T15:02:47.228Z,7.10
2018-05-16T15:05:15.145Z,7.20
2018-05-16T15:07:43.069Z,6.57
2018-05-16T15:10:11.087Z,6.70
2018-05-16T15:12:39.039Z,6.70
2018-05-16T15:15:06.929Z,7.27
2018-05-16T15:17:34.888Z,7.40
2018-05-16T15:20:02.881Z,6.20
2018-05-16T15:22:30.799Z,8.10
2018-05-16T15:24:59.150Z,6.80
2018-05-16T15:27:27.355Z,7.10
2018-05-16T15:29:55.324Z,5.87
2018-05-16T15:32:23.245Z,7.17
2018-05-16T15:34:51.171Z,7.67
2018-05-16T15:37:19.080Z,6.67
2018-05-16T15:39:47.012Z,6.53
2018-05-16T15:42:14.923Z,6.70
2018-05-16T15:44:42.919Z,6.90
2018-05-16T15:47:10.841Z,6.10
2018-05-16T15:49:39.758Z,6.27
2018-05-16T15:52:07.676Z,6.27
2018-05-16T15:54:35.605Z,7.63
2018-05-16T15:57:03.539Z,6.00
2018-05-16T15:59:31.463Z,6.60
2018-05-16T16:01:59.377Z,6.67
2018-05-16T16:04:27.327Z,5.70
2018-05-16T16:06:55.249Z,6.30
2018-05-16T16:09:23.180Z,6.57
2018-05-16T16:11:51.095Z,6.70
2018-05-16T16:14:19.023Z,6.50
2018-05-16T16:16:46.920Z,6.00
2018-05-16T16:19:14.875Z,6.27
2018-05-16T16:21:42.775Z,6.10
2018-05-16T16:24:10.677Z,7.67
2018-05-16T16:26:38.635Z,7.10
2018-05-16T16:29:06.588Z,7.10
2018-05-16T16:31:34.555Z,6.43
2018-05-16T16:34:02.455Z,6.67
2018-05-16T16:36:30.375Z,7.63
2018-05-16T16:38:58.324Z,8.10
2018-05-16T16:41:26.226Z,9.33
2018-05-16T16:43:54.145Z,8.23
2018-05-16T16:46:22.055Z,8.37
2018-05-16T16:48:50.019Z,10.30
2018-05-16T16:51:19.080Z,8.30
2018-05-16T16:53:47.023Z,9.80
2018-05-16T16:56:14.975Z,8.30
2018-05-16T16:58:42.888Z,8.67
2018-05-16T17:01:10.804Z,8.70
2018-05-16T17:03:39.093Z,8.00
2018-05-16T17:06:07.071Z,8.50
2018-05-16T17:08:35.080Z,9.07
2018-05-16T17:11:02.971Z,9.30
2018-05-16T17:13:30.898Z,8.90
2018-05-16T17:15:58.805Z,11.07
2018-05-16T17:18:26.751Z,14.60
2018-05-16T17:20:54.707Z,28.10
2018-05-16T17:23:23.363Z,12.90
2018-05-16T17:25:51.595Z,13.90
2018-05-16T17:28:20.262Z,12.03
2018-05-16T17:30:48.283Z,13.20
2018-05-16T17:33:16.721Z,12.13
2018-05-16T17:35:45.266Z,13.03
2018-05-16T17:38:13.227Z,10.17
2018-05-16T17:40:41.276Z,10.80
2018-05-16T17:43:09.253Z,9.70
2018-05-16T17:45:37.214Z,10.00
2018-05-16T17:48:05.244Z,8.60
2018-05-16T17:50:33.188Z,9.30
2018-05-16T17:53:01.085Z,9.20
2018-05-16T17:55:29.479Z,8.37
2018-05-16T17:57:57.883Z,8.40
2018-05-16T18:00:26.273Z,9.80
2018-05-16T18:02:54.201Z,9.50
2018-05-16T18:05:22.099Z,9.90
2018-05-16T18:07:50.047Z,9.17
2018-05-16T18:10:17.983Z,9.93
2018-05-16T18:12:47.535Z,9.47
2018-05-16T18:15:27.404Z,10.00
2018-05-16T18:17:55.320Z,10.00
2018-05-16T18:20:23.423Z,9.43
2018-05-16T18:22:51.423Z,10.60
2018-05-16T18:25:19.415Z,10.30
2018-05-16T18:27:47.356Z,9.43
2018-05-16T18:30:15.287Z,10.30
2018-05-16T18:32:43.713Z,8.90
2018-05-16T18:35:11.622Z,8.13
2018-05-16T18:37:39.528Z,9.47
2018-05-16T18:40:07.439Z,9.90
2018-05-16T18:42:35.518Z,8.97
2018-05-16T18:45:03.325Z,8.20
2018-05-16T18:47:31.242Z,7.97
2018-05-16T18:49:59.184Z,10.03
2018-05-16T18:52:27.105Z,8.63
2018-05-16T18:54:55.148Z,8.30
2018-05-16T18:57:23.696Z,9.80
2018-05-16T18:59:51.631Z,8.60
2018-05-16T19:02:19.565Z,8.77
2018-05-16T19:04:47.786Z,8.50
2018-05-16T19:07:15.717Z,8.00
2018-05-16T19:09:43.942Z,7.70
2018-05-16T19:12:11.876Z,9.00
2018-05-16T19:14:39.884Z,9.03
2018-05-16T19:17:07.797Z,7.83
2018-05-16T19:19:36.533Z,8.63
2018-05-16T19:22:04.473Z,8.47
2018-05-16T19:24:32.901Z,7.53
2018-05-16T19:27:01.017Z,9.40
2018-05-16T19:29:28.856Z,9.30
2018-05-16T19:31:56.789Z,9.00
2018-05-16T19:34:24.707Z,8.63
2018-05-16T19:36:52.642Z,8.83
2018-05-16T19:39:20.549Z,9.50
2018-05-16T19:41:48.503Z,22.00
2018-05-16T19:44:16.791Z,32.57
2018-05-16T19:46:44.709Z,63.70
2018-05-16T19:49:12.763Z,39.47
2018-05-16T19:51:40.687Z,24.40
2018-05-16T19:54:08.615Z,14.17
2018-05-16T19:56:36.537Z,11.50
2018-05-16T19:59:04.461Z,12.33
2018-05-16T20:01:32.436Z,11.03
2018-05-16T20:04:00.368Z,10.80
2018-05-16T20:06:28.423Z,11.37
2018-05-16T20:08:56.378Z,11.47
2018-05-16T20:11:24.298Z,11.33
2018-05-16T20:13:52.261Z,12.20
2018-05-16T20:16:20.199Z,11.33
2018-05-16T20:18:48.149Z,11.53
2018-05-16T20:21:16.061Z,11.90
2018-05-16T20:23:44.160Z,11.03
2018-05-16T20:26:12.000Z,11.40
2018-05-16T20:28:40.032Z,11.20
2018-05-16T20:31:08.015Z,12.23
2018-05-16T20:33:35.937Z,15.17
2018-05-16T20:36:03.879Z,13.47
2018-05-16T20:38:31.829Z,13.43
2018-05-16T20:40:59.753Z,14.47
2018-05-16T20:43:27.704Z,16.17
2018-05-16T20:45:55.666Z,14.87
2018-05-16T20:48:23.625Z,15.77
2018-05-16T20:50:51.545Z,16.10
2018-05-16T20:53:19.476Z,16.83
2018-05-16T20:55:47.392Z,15.70
2018-05-16T20:58:15.336Z,17.00
2018-05-16T21:00:43.270Z,18.10
2018-05-16T21:03:11.189Z,18.40
2018-05-16T21:05:39.120Z,17.10
2018-05-16T21:08:07.198Z,19.23
2018-05-16T21:10:35.124Z,18.80
2018-05-16T21:13:03.231Z,17.20
2018-05-16T21:15:31.140Z,19.37
2018-05-16T21:17:59.064Z,18.53
2018-05-16T21:20:27.006Z,17.53
2018-05-16T21:22:54.916Z,18.40
2018-05-16T21:25:22.860Z,15.03
2018-05-16T21:27:50.832Z,15.70
2018-05-16T21:30:18.768Z,16.70
2018-05-16T21:32:46.687Z,13.37
2018-05-16T21:35:14.766Z,14.03
2018-05-16T21:37:42.692Z,13.83
2018-05-16T21:40:10.630Z,12.73
2018-05-16T21:42:38.563Z,13.57
2018-05-16T21:45:06.496Z,11.60
2018-05-16T21:47:34.429Z,10.20
2018-05-16T21:50:02.340Z,9.90
2018-05-16T21:52:30.262Z,11.03
2018-05-16T21:54:58.187Z,10.07
2018-05-16T21:57:26.083Z,9.80
2018-05-16T21:59:54.013Z,10.00
2018-05-16T22:02:21.960Z,9.67
2018-05-16T22:04:49.868Z,9.37
2018-05-16T22:07:17.789Z,9.80
2018-05-16T22:09:45.697Z,9.97
2018-05-16T22:12:13.627Z,9.50
2018-05-16T22:14:41.577Z,8.90
2018-05-16T22:17:09.506Z,7.97
2018-05-16T22:19:37.507Z,8.33
2018-05-16T22:22:05.373Z,8.90
2018-05-16T22:24:33.281Z,8.43
2018-05-16T22:27:01.199Z,8.77
2018-05-16T22:29:29.123Z,9.80
2018-05-16T22:32:02.807Z,10.00
2018-05-16T22:34:36.408Z,10.33
2018-05-16T22:37:10.059Z,10.13
2018-05-16T22:39:43.714Z,10.70
2018-05-16T22:42:17.465Z,10.03
2018-05-16T22:44:48.116Z,9.47
2018-05-16T22:47:16.062Z,9.83
2018-05-16T22:49:43.978Z,10.43
2018-05-16T22:52:11.885Z,10.70
2018-05-16T22:54:39.821Z,10.97
2018-05-16T22:57:07.713Z,12.07
2018-05-16T22:59:35.648Z,11.67
2018-05-16T23:02:03.739Z,11.93
2018-05-16T23:04:31.649Z,12.20
2018-05-16T23:07:00.036Z,10.80
2018-05-16T23:09:27.963Z,11.20
2018-05-16T23:11:55.899Z,10.73
2018-05-16T23:14:23.815Z,11.10
2018-05-16T23:16:51.753Z,10.90
2018-05-16T23:19:19.675Z,9.97
2018-05-16T23:21:47.581Z,9.20
2018-05-16T23:24:15.492Z,9.80
2018-05-16T23:26:43.716Z,8.93
2018-05-16T23:29:11.637Z,9.87
2018-05-16T23:31:39.546Z,8.77
2018-05-16T23:34:07.489Z,9.63
2018-05-16T23:36:35.409Z,9.60
2018-05-16T23:39:03.397Z,9.73
2018-05-16T23:41:31.284Z,9.33
2018-05-16T23:43:59.200Z,8.13
2018-05-16T23:46:27.115Z,8.50
2018-05-16T23:48:55.050Z,8.03
2018-05-16T23:51:22.939Z,8.07
2018-05-16T23:53:50.880Z,7.40
2018-05-16T23:56:18.794Z,7.33
2018-05-16T23:58:46.699Z,7.93
